Kezdőlap
METAR-TAF:

METAR-TAF

Repülőterek :

Mikolajiv, Ukrajna

földrajzi szélesség: 47-03-29N, földrajzi hosszúság: 031-55-15E, magasság: 56 m

Jelenlegi meteorológiai megfigyelések

A jelentés 6 órával és 8 perccel ezelõtt készült, 15:00 UTC
Keleti szél 8 kt
Hőmérséklet 6°C
Páratartalom 93%
Légköri nyomás 1025 hPa
Látótávolság: 9000 m
Szakadozott felhőzet 1300 lábon

METAR: UKON 181500Z 08004MPS 9000 BKN013 06/05 Q1025 NOSIG

Idő: 23:08 (21:08 UTC)

Előrejelzés

A jelentés 7 órával és 6 perccel ezelõtt készült, 14:02 UTC
Az előrejelzés 18-én 15 óra UTC és 18-én 24 óra UTC között érvényes
Kelet-északkeleti szél 6 kt
Látótávolság: 2100 m
Szórványos felhőzet 500 lábon
Szakadozott felhőzet 1000 lábon
Párásság
18-én 15 óra UTC és 18-én 24 óra UTC között ideiglenes
Látótávolság: 1000 m
Szakadozott felhőzet 300 lábon
Párásság

TAF: UKON 181402Z 1815/1824 07003MPS 2100 BR SCT005 BKN010 TEMPO 1815/1824 1000 BR BKN003

Meteorológiai megfigyelések és előrejelzések több, mint 4000 repülőtéren (METAR és TAF jelentéseket).

A térképen piros és sárga pontok jelzik az elérhető meteorológiai állomásokat.

Mozgassa az egeret a pont fölött, hogy megjelenjen az állomás neve.

Azután kattintson az időjárási megfigyelések és előrejelzések megtekintéséhez.

A térkép megváltoztatása: kattintson a fekete keresztel jelölt zöld gombra ráközelítéshez, a vonallal jelölt zöld gombra távolításhoz, vagy a zöld nyilakra a szomszédos térképek eléréséhez.


METAR-TAF: